createdAt,value
2022-11-24T00:01:53.115Z,100291.50
2022-11-24T00:04:22.462Z,100297.33
2022-11-24T00:06:53.447Z,100301.02
2022-11-24T00:09:22.646Z,100297.91
2022-11-24T00:11:51.980Z,100298.25
2022-11-24T00:14:21.270Z,100307.86
2022-11-24T00:16:50.816Z,100300.00
2022-11-24T00:19:20.139Z,100303.55
2022-11-24T00:21:49.358Z,100298.81
2022-11-24T00:24:18.685Z,100308.33
2022-11-24T00:26:48.051Z,100310.95
2022-11-24T00:29:17.480Z,100303.55
2022-11-24T00:31:46.823Z,100298.19
2022-11-24T00:34:16.533Z,100297.25
2022-11-24T00:36:45.740Z,100292.60
2022-11-24T00:39:16.358Z,100300.25
2022-11-24T00:41:45.871Z,100294.26
2022-11-24T00:44:15.278Z,100300.34
2022-11-24T00:46:44.733Z,100304.98
2022-11-24T00:49:14.188Z,100309.67
2022-11-24T00:51:43.437Z,100309.63
2022-11-24T00:54:13.028Z,100317.41
2022-11-24T00:56:42.247Z,100320.93
2022-11-24T00:59:11.837Z,100314.50
2022-11-24T01:01:42.475Z,100325.55
2022-11-24T01:04:11.805Z,100324.61
2022-11-24T01:06:41.054Z,100334.47
2022-11-24T01:09:12.082Z,100333.97
2022-11-24T01:11:59.326Z,100326.69
2022-11-24T01:14:29.145Z,100328.37
2022-11-24T01:16:58.684Z,100333.81
2022-11-24T01:19:28.140Z,100336.13
2022-11-24T01:21:57.364Z,100337.18
2022-11-24T01:24:26.702Z,100336.89
2022-11-24T01:26:55.942Z,100338.92
2022-11-24T01:29:26.018Z,100343.79
2022-11-24T01:31:55.269Z,100340.48
2022-11-24T01:34:24.896Z,100336.25
2022-11-24T01:36:54.300Z,100348.27
2022-11-24T01:39:23.536Z,100353.84
2022-11-24T01:41:52.872Z,100364.55
2022-11-24T01:44:24.663Z,100362.98
2022-11-24T01:46:58.889Z,100374.06
2022-11-24T01:49:46.122Z,100378.12
2022-11-24T01:52:18.492Z,100372.41
2022-11-24T01:54:56.709Z,100369.33
2022-11-24T01:57:28.787Z,100373.02
2022-11-24T02:00:01.142Z,100368.02
2022-11-24T02:02:32.399Z,100364.08
2022-11-24T02:05:15.473Z,100370.98
2022-11-24T02:07:45.149Z,100372.25
2022-11-24T02:10:16.137Z,100374.53
2022-11-24T02:12:47.685Z,100382.48
2022-11-24T02:15:18.416Z,100381.05
2022-11-24T02:17:48.048Z,100385.11
2022-11-24T02:20:17.701Z,100386.52
2022-11-24T02:22:59.300Z,100392.69
2022-11-24T02:25:49.881Z,100394.76
2022-11-24T02:28:22.231Z,100404.88
2022-11-24T02:30:51.939Z,100406.94
2022-11-24T02:33:22.338Z,100413.37
2022-11-24T02:35:52.172Z,100418.05
2022-11-24T02:38:30.874Z,100416.37
2022-11-24T02:41:02.490Z,100420.33
2022-11-24T02:43:34.208Z,100421.98
2022-11-24T02:46:03.532Z,100419.15
2022-11-24T02:48:32.868Z,100427.39
2022-11-24T02:51:02.055Z,100435.47
2022-11-24T02:53:31.409Z,100423.42
2022-11-24T02:56:00.735Z,100428.89
2022-11-24T02:58:30.024Z,100434.38
2022-11-24T03:00:59.821Z,100436.26
2022-11-24T03:03:29.305Z,100434.73
2022-11-24T03:05:58.608Z,100439.50
2022-11-24T03:08:27.922Z,100446.30
2022-11-24T03:10:57.319Z,100443.11
2022-11-24T03:13:26.596Z,100449.66
2022-11-24T03:15:56.015Z,100450.63
2022-11-24T03:18:25.505Z,100451.10
2022-11-24T03:20:54.920Z,100451.84
2022-11-24T03:23:24.142Z,100451.72
2022-11-24T03:25:53.420Z,100450.99
2022-11-24T03:28:22.921Z,100453.86
2022-11-24T03:30:52.214Z,100458.41
2022-11-24T03:33:21.619Z,100456.16
2022-11-24T03:35:51.001Z,100458.28
2022-11-24T03:38:20.413Z,100455.30
2022-11-24T03:40:49.682Z,100454.00
2022-11-24T03:43:19.231Z,100455.55
2022-11-24T03:45:49.987Z,100464.37
2022-11-24T03:48:21.610Z,100462.34
2022-11-24T03:50:58.610Z,100462.59
2022-11-24T03:53:29.263Z,100464.95
2022-11-24T03:55:59.246Z,100470.08
2022-11-24T03:58:28.992Z,100475.31
2022-11-24T04:00:58.660Z,100481.28
2022-11-24T04:03:27.871Z,100481.63
2022-11-24T04:05:57.108Z,100486.66
2022-11-24T04:08:26.460Z,100491.64
2022-11-24T04:10:56.050Z,100497.59
2022-11-24T04:13:26.500Z,100499.86
2022-11-24T04:15:56.401Z,100497.83
2022-11-24T04:18:25.612Z,100504.26
2022-11-24T04:20:55.009Z,100507.96
2022-11-24T04:23:24.537Z,100510.93
2022-11-24T04:25:53.764Z,100510.09
2022-11-24T04:28:23.096Z,100507.02
2022-11-24T04:30:52.334Z,100515.34
2022-11-24T04:33:21.696Z,100522.94
2022-11-24T04:35:53.966Z,100520.21
2022-11-24T04:39:23.941Z,100519.37
2022-11-24T04:40:54.101Z,100524.50
2022-11-24T04:43:23.430Z,100529.85
2022-11-24T04:45:52.632Z,100530.08
2022-11-24T04:48:22.033Z,100528.98
2022-11-24T04:50:51.551Z,100535.41
2022-11-24T04:53:20.770Z,100539.45
2022-11-24T04:55:50.405Z,100540.99
2022-11-24T04:58:19.601Z,100544.69
2022-11-24T05:00:49.063Z,100558.24
2022-11-24T05:03:18.257Z,100560.51
2022-11-24T05:05:47.628Z,100558.23
2022-11-24T05:08:16.924Z,100552.73
2022-11-24T05:10:46.357Z,100564.05
2022-11-24T05:13:15.565Z,100561.89
2022-11-24T05:15:44.846Z,100563.66
2022-11-24T05:18:16.305Z,100565.20
2022-11-24T05:20:45.847Z,100575.89
2022-11-24T05:23:15.133Z,100588.02
2022-11-24T05:25:47.631Z,100588.22
2022-11-24T05:28:15.279Z,100593.03
2022-11-24T05:30:45.050Z,100604.69
2022-11-24T05:33:20.021Z,100605.53
2022-11-24T05:35:50.186Z,100612.73
2022-11-24T05:38:19.867Z,100616.08
2022-11-24T05:40:49.238Z,100612.54
2022-11-24T05:43:18.925Z,100618.43
2022-11-24T05:45:48.145Z,100617.39
2022-11-24T05:48:17.449Z,100622.24
2022-11-24T05:50:46.673Z,100628.33
2022-11-24T05:53:15.924Z,100629.17
2022-11-24T05:55:45.372Z,100629.91
2022-11-24T05:58:14.891Z,100634.10
2022-11-24T06:00:44.106Z,100634.79
2022-11-24T06:03:13.972Z,100638.72
2022-11-24T06:05:46.875Z,100641.17
2022-11-24T06:08:16.388Z,100645.16
2022-11-24T06:10:45.745Z,100653.91
2022-11-24T06:13:15.222Z,100660.51
2022-11-24T06:15:44.969Z,100660.95
2022-11-24T06:18:14.402Z,100664.59
2022-11-24T06:20:53.079Z,100668.63
2022-11-24T06:23:14.728Z,100670.38
2022-11-24T06:25:47.370Z,100678.34
2022-11-24T06:28:15.055Z,100684.25
2022-11-24T06:30:44.295Z,100695.52
2022-11-24T06:33:13.547Z,100698.28
2022-11-24T06:35:42.778Z,100704.25
2022-11-24T06:38:12.518Z,100703.08
2022-11-24T06:40:41.709Z,100706.69
2022-11-24T06:43:11.194Z,100710.58
2022-11-24T06:45:40.422Z,100718.25
2022-11-24T06:48:09.639Z,100726.91
2022-11-24T06:50:39.315Z,100729.25
2022-11-24T06:53:08.651Z,100732.73
2022-11-24T06:55:37.894Z,100737.08
2022-11-24T06:58:07.189Z,100746.02
2022-11-24T07:00:37.101Z,100743.55
2022-11-24T07:03:06.635Z,100752.52
2022-11-24T07:05:35.869Z,100763.80
2022-11-24T07:08:05.929Z,100766.76
2022-11-24T07:10:35.519Z,100768.36
2022-11-24T07:13:05.243Z,100767.17
2022-11-24T07:15:34.468Z,100772.66
2022-11-24T07:18:03.816Z,100775.55
2022-11-24T07:20:33.283Z,100789.45
2022-11-24T07:23:02.665Z,100782.87
2022-11-24T07:25:31.939Z,100782.11
2022-11-24T07:28:01.608Z,100791.07
2022-11-24T07:30:30.981Z,100801.19
2022-11-24T07:33:01.737Z,100798.05
2022-11-24T07:35:31.621Z,100807.84
2022-11-24T07:38:00.999Z,100808.62
2022-11-24T07:40:30.908Z,100809.93
2022-11-24T07:43:01.765Z,100808.48
2022-11-24T07:45:32.494Z,100820.05
2022-11-24T07:48:01.929Z,100818.98
2022-11-24T07:50:31.539Z,100830.05
2022-11-24T07:53:05.172Z,100836.48
2022-11-24T07:55:34.482Z,100834.23
2022-11-24T07:58:03.950Z,100836.95
2022-11-24T08:00:33.177Z,100847.77
2022-11-24T08:03:02.610Z,100852.80
2022-11-24T08:05:31.903Z,100861.49
2022-11-24T08:08:01.638Z,100864.44
2022-11-24T08:10:30.867Z,100868.40
2022-11-24T08:13:03.448Z,100873.45
2022-11-24T08:15:32.177Z,100869.28
2022-11-24T08:18:03.486Z,100877.59
2022-11-24T08:20:32.926Z,100882.27
2022-11-24T08:23:02.881Z,100881.59
2022-11-24T08:25:32.985Z,100888.73
2022-11-24T08:28:03.660Z,100897.09
2022-11-24T08:30:33.198Z,100899.17
2022-11-24T08:33:02.771Z,100901.19
2022-11-24T08:35:31.966Z,100910.56
2022-11-24T08:38:04.818Z,100912.16
2022-11-24T08:40:33.034Z,100915.48
2022-11-24T08:43:02.638Z,100923.40
2022-11-24T08:45:35.476Z,100922.02
2022-11-24T08:48:03.120Z,100920.88
2022-11-24T08:50:33.876Z,100928.98
2022-11-24T08:53:03.182Z,100933.34
2022-11-24T08:55:32.611Z,100943.78
2022-11-24T08:58:01.927Z,100942.77
2022-11-24T09:00:31.268Z,100950.60
2022-11-24T09:03:00.786Z,100956.15
2022-11-24T09:05:51.162Z,100958.60
2022-11-24T09:08:01.059Z,100968.20
2022-11-24T09:10:30.390Z,100963.60
2022-11-24T09:12:59.849Z,100962.97
2022-11-24T09:15:29.369Z,100972.51
2022-11-24T09:17:59.139Z,100983.28
2022-11-24T09:20:28.511Z,100985.12
2022-11-24T09:22:58.095Z,100988.53
2022-11-24T09:25:27.432Z,100990.11
2022-11-24T09:27:57.317Z,100992.63
2022-11-24T09:30:26.738Z,100995.95
2022-11-24T09:32:59.277Z,101002.09
2022-11-24T09:35:28.689Z,101015.34
2022-11-24T09:37:57.888Z,101013.27
2022-11-24T09:40:27.325Z,101021.31
2022-11-24T09:43:02.502Z,101017.36
2022-11-24T09:46:03.972Z,101009.36
2022-11-24T09:48:14.903Z,101014.86
2022-11-24T09:50:45.798Z,101027.06
2022-11-24T09:53:35.602Z,101025.96
2022-11-24T09:56:20.981Z,101031.61
2022-11-24T09:58:54.892Z,101034.52
2022-11-24T10:01:32.807Z,101044.36
2022-11-24T10:04:06.482Z,101039.50
2022-11-24T10:06:42.232Z,101045.77
2022-11-24T10:09:32.942Z,101049.64
2022-11-24T10:12:09.111Z,101058.80
2022-11-24T10:14:59.314Z,101056.14
2022-11-24T10:17:37.900Z,101056.80
2022-11-24T10:20:22.407Z,101054.86
2022-11-24T10:23:00.826Z,101062.88
2022-11-24T10:25:56.789Z,101066.98
2022-11-24T10:28:31.914Z,101066.64
2022-11-24T10:31:21.239Z,101061.27
2022-11-24T10:33:50.949Z,101065.56
2022-11-24T10:36:23.376Z,101059.82
2022-11-24T10:39:08.162Z,101062.91
2022-11-24T10:42:01.818Z,101061.42
2022-11-24T10:44:31.415Z,101063.00
2022-11-24T10:47:00.748Z,101059.89
2022-11-24T10:49:33.731Z,101066.77
2022-11-24T10:52:14.145Z,101057.44
2022-11-24T10:55:01.077Z,101057.23
2022-11-24T10:57:41.191Z,101062.56
2022-11-24T11:00:23.258Z,101062.58
2022-11-24T11:03:10.757Z,101064.27
2022-11-24T11:05:42.965Z,101060.63
2022-11-24T11:08:20.689Z,101061.74
2022-11-24T11:10:53.500Z,101057.79
2022-11-24T11:13:28.544Z,101060.27
2022-11-24T11:15:59.251Z,101057.52
2022-11-24T11:18:33.651Z,101060.48
2022-11-24T11:21:03.668Z,101066.08
2022-11-24T11:23:35.213Z,101059.20
2022-11-24T11:26:31.056Z,101057.14
2022-11-24T11:31:41.820Z,101063.28
2022-11-24T11:34:25.268Z,101053.53
2022-11-24T11:36:53.246Z,101062.22
2022-11-24T11:39:36.661Z,101057.98
2022-11-24T11:42:45.355Z,101059.83
2022-11-24T11:45:07.616Z,101067.91
2022-11-24T11:47:43.188Z,101061.78
2022-11-24T11:50:18.119Z,101063.78
2022-11-24T11:52:53.401Z,101066.70
2022-11-24T11:55:26.016Z,101060.23
2022-11-24T11:58:02.008Z,101064.01
2022-11-24T12:00:32.808Z,101058.28
2022-11-24T12:03:21.938Z,101066.02
2022-11-24T12:06:20.611Z,101059.69
2022-11-24T12:09:23.724Z,101064.43
2022-11-24T12:11:47.567Z,101064.80
2022-11-24T12:14:39.185Z,101066.54
2022-11-24T12:17:29.033Z,101067.09
2022-11-24T12:20:04.479Z,101068.62
2022-11-24T12:22:39.897Z,101065.33
2022-11-24T12:25:21.599Z,101066.38
2022-11-24T12:28:27.809Z,101072.98
2022-11-24T12:31:03.995Z,101065.02
2022-11-24T12:34:01.506Z,101070.29
2022-11-24T12:36:40.158Z,101062.77
2022-11-24T12:39:18.272Z,101064.83
2022-11-24T12:41:56.625Z,101070.76
2022-11-24T12:44:48.529Z,101072.66
2022-11-24T12:47:30.117Z,101072.98
2022-11-24T12:50:14.611Z,101078.94
2022-11-24T12:52:47.000Z,101085.64
2022-11-24T12:55:18.677Z,101082.41
2022-11-24T12:58:23.095Z,101081.16
2022-11-24T13:01:16.134Z,101080.97
2022-11-24T13:04:10.992Z,101086.24
2022-11-24T13:06:49.723Z,101086.84
2022-11-24T13:09:19.640Z,101076.03
2022-11-24T13:11:51.185Z,101078.41
2022-11-24T13:14:22.982Z,101076.62
2022-11-24T13:19:36.857Z,101075.09
2022-11-24T13:22:09.449Z,101071.66
2022-11-24T13:24:38.925Z,101075.30
2022-11-24T13:27:22.406Z,101076.62
2022-11-24T13:29:52.453Z,101078.54
2022-11-24T13:32:25.221Z,101073.58
2022-11-24T13:34:58.079Z,101070.52
2022-11-24T13:37:35.489Z,101072.56
2022-11-24T13:40:17.827Z,101069.12
2022-11-24T13:43:03.319Z,101060.97
2022-11-24T13:45:48.799Z,101061.09
2022-11-24T13:48:24.072Z,101051.52
2022-11-24T13:50:57.049Z,101059.91
2022-11-24T13:53:37.239Z,101052.52
2022-11-24T13:56:18.877Z,101055.28
2022-11-24T13:58:54.001Z,101051.75
2022-11-24T14:01:28.630Z,101053.45
2022-11-24T14:04:36.268Z,101053.59
2022-11-24T14:07:02.471Z,101052.19
2022-11-24T14:09:46.992Z,101049.30
2022-11-24T14:12:19.093Z,101053.20
2022-11-24T14:14:55.016Z,101053.36
2022-11-24T14:17:27.513Z,101050.37
2022-11-24T14:19:58.243Z,101047.40
2022-11-24T14:22:36.144Z,101048.94
2022-11-24T14:25:06.054Z,101052.30
2022-11-24T14:27:38.267Z,101053.48
2022-11-24T14:30:12.693Z,101049.53
2022-11-24T14:32:43.639Z,101044.64
2022-11-24T14:35:30.274Z,101046.73
2022-11-24T14:38:01.996Z,101041.34
2022-11-24T14:40:40.549Z,101037.04
2022-11-24T14:43:25.358Z,101047.09
2022-11-24T14:46:03.668Z,101041.36
2022-11-24T14:48:37.647Z,101043.89
2022-11-24T14:51:10.022Z,101047.59
2022-11-24T14:53:43.852Z,101043.89
2022-11-24T14:56:37.199Z,101041.02
2022-11-24T14:59:24.410Z,101044.72
2022-11-24T15:01:53.943Z,101047.61
2022-11-24T15:07:16.159Z,101057.87
2022-11-24T15:09:48.713Z,101056.94
2022-11-24T15:12:29.290Z,101054.55
2022-11-24T15:15:04.572Z,101057.66
2022-11-24T15:17:33.961Z,101050.13
2022-11-24T15:20:06.613Z,101060.17
2022-11-24T15:22:36.276Z,101061.00
2022-11-24T15:25:23.526Z,101054.88
2022-11-24T15:36:25.189Z,101052.36
2022-11-24T15:38:54.678Z,101049.70
2022-11-24T15:41:27.101Z,101052.06
2022-11-24T15:43:58.099Z,101050.05
2022-11-24T15:46:28.606Z,101038.34
2022-11-24T15:48:58.092Z,101044.56
2022-11-24T15:51:27.697Z,101042.43
2022-11-24T15:54:00.987Z,101044.33
2022-11-24T15:56:34.282Z,101047.19
2022-11-24T15:59:04.318Z,101051.48
2022-11-24T16:01:35.083Z,101054.81
2022-11-24T16:04:04.666Z,101055.62
2022-11-24T16:06:34.031Z,101054.20
2022-11-24T16:09:03.571Z,101055.36
2022-11-24T16:11:33.024Z,101056.67
2022-11-24T16:14:02.521Z,101063.23
2022-11-24T16:16:31.948Z,101062.39
2022-11-24T16:19:01.717Z,101063.13
2022-11-24T16:21:31.256Z,101062.89
2022-11-24T16:24:00.640Z,101061.80
2022-11-24T16:26:29.960Z,101058.45
2022-11-24T16:28:59.393Z,101057.13
2022-11-24T16:31:28.948Z,101063.00
2022-11-24T16:33:58.194Z,101061.57
2022-11-24T16:36:28.388Z,101063.11
2022-11-24T16:38:57.892Z,101052.84
2022-11-24T16:41:27.134Z,101052.80
2022-11-24T16:43:56.920Z,101052.34
2022-11-24T16:46:26.471Z,101055.58
2022-11-24T16:49:00.292Z,101062.62
2022-11-24T16:51:34.661Z,101056.16
2022-11-24T16:54:02.880Z,101049.02
2022-11-24T16:56:32.399Z,101040.52
2022-11-24T16:59:02.004Z,101040.63
2022-11-24T17:01:33.006Z,101050.06
2022-11-24T17:04:03.749Z,101054.47
2022-11-24T17:06:34.559Z,101054.69
2022-11-24T17:09:03.762Z,101049.20
2022-11-24T17:11:32.984Z,101052.17
2022-11-24T17:14:02.914Z,101054.45
2022-11-24T17:16:32.197Z,101047.89
2022-11-24T17:19:01.531Z,101051.72
2022-11-24T17:21:32.179Z,101056.62
2022-11-24T17:24:05.377Z,101060.21
2022-11-24T17:26:35.307Z,101055.20
2022-11-24T17:29:05.118Z,101045.38
2022-11-24T17:31:39.559Z,101054.34
2022-11-24T17:34:10.855Z,101047.55
2022-11-24T17:36:41.618Z,101050.52
2022-11-24T17:39:11.347Z,101044.64
2022-11-24T17:41:41.263Z,101043.09
2022-11-24T17:44:12.226Z,101041.50
2022-11-24T17:46:41.469Z,101031.85
2022-11-24T17:49:12.483Z,101032.08
2022-11-24T17:51:41.971Z,101045.15
2022-11-24T17:54:44.900Z,101030.71
2022-11-24T17:56:42.588Z,101034.19
2022-11-24T17:59:12.013Z,101027.50
2022-11-24T18:01:41.408Z,101029.39
2022-11-24T18:04:11.285Z,101028.09
2022-11-24T18:06:40.465Z,101036.14
2022-11-24T18:09:10.061Z,101038.02
2022-11-24T18:11:39.431Z,101036.87
2022-11-24T18:14:09.846Z,101037.09
2022-11-24T18:16:39.076Z,101034.47
2022-11-24T18:19:11.375Z,101025.98
2022-11-24T18:21:42.297Z,101024.66
2022-11-24T18:24:12.746Z,101029.66
2022-11-24T18:26:43.788Z,101033.14
2022-11-24T18:29:13.404Z,101032.98
2022-11-24T18:31:42.685Z,101037.03
2022-11-24T18:34:12.044Z,101037.95
2022-11-24T18:36:41.386Z,101034.19
2022-11-24T18:39:11.375Z,101028.83
2022-11-24T18:41:40.933Z,101023.67
2022-11-24T18:44:10.462Z,101027.16
2022-11-24T18:46:39.730Z,101016.09
2022-11-24T18:49:09.392Z,101017.84
2022-11-24T18:51:38.595Z,101026.00
2022-11-24T18:54:07.973Z,101026.98
2022-11-24T18:56:37.245Z,101025.31
2022-11-24T18:59:06.571Z,101025.05
2022-11-24T19:01:36.059Z,101027.67
2022-11-24T19:04:05.921Z,101028.68
2022-11-24T19:06:37.475Z,101024.25
2022-11-24T19:09:09.689Z,101026.58
2022-11-24T19:11:41.441Z,101027.30
2022-11-24T19:14:13.611Z,101022.51
2022-11-24T19:16:43.332Z,101025.78
2022-11-24T19:19:13.640Z,101024.91
2022-11-24T19:21:43.672Z,101014.51
2022-11-24T19:24:13.659Z,101009.64
2022-11-24T19:26:43.102Z,101018.69
2022-11-24T19:29:12.724Z,100997.80
2022-11-24T19:31:43.951Z,101011.89
2022-11-24T19:34:13.449Z,101001.73
2022-11-24T19:36:43.420Z,101010.69
2022-11-24T19:39:17.214Z,101003.50
2022-11-24T19:41:46.758Z,101011.18
2022-11-24T19:44:16.202Z,101007.36
2022-11-24T19:46:45.505Z,101008.58
2022-11-24T19:49:14.954Z,101000.94
2022-11-24T19:51:44.440Z,100998.47
2022-11-24T19:54:14.118Z,101004.59
2022-11-24T19:56:43.485Z,101005.17
2022-11-24T19:59:15.301Z,101004.37
2022-11-24T20:05:04.832Z,101013.33
2022-11-24T20:07:34.793Z,101012.46
2022-11-24T20:10:07.759Z,101009.95
2022-11-24T20:12:35.316Z,101008.64
2022-11-24T20:15:04.947Z,101013.14
2022-11-24T20:17:34.200Z,101012.68
2022-11-24T20:20:03.958Z,101003.85
2022-11-24T20:22:33.299Z,101012.48
2022-11-24T20:25:02.658Z,101002.48
2022-11-24T20:27:31.874Z,101011.91
2022-11-24T20:30:01.287Z,101005.97
2022-11-24T20:32:30.777Z,101009.19
2022-11-24T20:35:01.763Z,101006.33
2022-11-24T20:37:31.191Z,101002.81
2022-11-24T20:40:02.457Z,101001.84
2022-11-24T20:42:32.607Z,101000.98
2022-11-24T20:45:01.935Z,101001.54
2022-11-24T20:47:31.468Z,100997.16
2022-11-24T20:50:00.820Z,100994.66
2022-11-24T20:52:30.261Z,100994.05
2022-11-24T20:55:01.374Z,100991.34
2022-11-24T20:57:30.664Z,100985.05
2022-11-24T20:59:59.952Z,100987.08
2022-11-24T21:02:29.251Z,100989.61
2022-11-24T21:04:58.885Z,100981.64
2022-11-24T21:07:28.281Z,100985.00
2022-11-24T21:09:57.618Z,100986.78
2022-11-24T21:12:26.842Z,100995.14
2022-11-24T21:14:56.341Z,100980.48
2022-11-24T21:17:25.532Z,100974.17
2022-11-24T21:20:00.763Z,100980.16
2022-11-24T21:22:25.821Z,100972.63
2022-11-24T21:24:55.200Z,100977.43
2022-11-24T21:27:24.403Z,100977.08
2022-11-24T21:29:53.641Z,100974.44
2022-11-24T21:32:23.105Z,100970.29
2022-11-24T21:34:52.426Z,100965.16
2022-11-24T21:37:21.764Z,100967.31
2022-11-24T21:39:51.022Z,100971.59
2022-11-24T21:42:20.452Z,100966.48
2022-11-24T21:44:49.704Z,100962.87
2022-11-24T21:47:18.967Z,100964.08
2022-11-24T21:49:48.445Z,100963.50
2022-11-24T21:52:17.686Z,100965.43
2022-11-24T21:54:46.951Z,100970.11
2022-11-24T21:57:16.392Z,100968.56
2022-11-24T21:59:45.616Z,100966.64
2022-11-24T22:02:15.195Z,100958.41
2022-11-24T22:04:44.437Z,100963.77
2022-11-24T22:07:13.894Z,100964.23
2022-11-24T22:09:43.377Z,100972.27
2022-11-24T22:12:12.741Z,100967.13
2022-11-24T22:14:43.256Z,100968.56
2022-11-24T22:17:14.806Z,100967.02
2022-11-24T22:19:44.228Z,100960.96
2022-11-24T22:22:13.475Z,100963.94
2022-11-24T22:24:42.851Z,100960.93
2022-11-24T22:27:12.097Z,100958.30
2022-11-24T22:29:41.487Z,100954.23
2022-11-24T22:32:10.713Z,100964.05
2022-11-24T22:34:40.013Z,100963.82
2022-11-24T22:37:09.274Z,100960.69
2022-11-24T22:39:38.599Z,100959.11
2022-11-24T22:42:07.834Z,100967.09
2022-11-24T22:44:37.661Z,100966.08
2022-11-24T22:47:07.086Z,100963.55
2022-11-24T22:49:36.431Z,100960.77
2022-11-24T22:52:05.647Z,100961.22
2022-11-24T22:54:35.345Z,100965.13
2022-11-24T22:57:04.963Z,100970.38
2022-11-24T22:59:34.191Z,100960.84
2022-11-24T23:02:05.115Z,100958.45
2022-11-24T23:04:34.634Z,100968.09
2022-11-24T23:07:04.150Z,100958.17
2022-11-24T23:09:33.850Z,100966.63
2022-11-24T23:12:03.094Z,100959.59
2022-11-24T23:14:32.348Z,100963.81
2022-11-24T23:17:01.597Z,100958.17
2022-11-24T23:19:30.944Z,100956.73
2022-11-24T23:22:00.201Z,100950.53
2022-11-24T23:24:30.245Z,100948.13
2022-11-24T23:26:59.560Z,100946.59
2022-11-24T23:29:28.863Z,100948.76
2022-11-24T23:31:58.340Z,100947.33
2022-11-24T23:34:28.090Z,100942.22
2022-11-24T23:36:57.309Z,100941.13
2022-11-24T23:39:26.941Z,100936.97
2022-11-24T23:41:56.166Z,100930.64
2022-11-24T23:44:25.528Z,100931.27
2022-11-24T23:46:54.961Z,100933.38
2022-11-24T23:49:24.468Z,100928.97
2022-11-24T23:51:53.873Z,100931.95
2022-11-24T23:54:23.353Z,100930.75
2022-11-24T23:56:52.574Z,100931.38
2022-11-24T23:59:22.771Z,100924.59
